Time;durP1;ratioP1;P1;durP2;ratioP2;P2;SDS_P1;SDS_P2;PMS_P1;PMS_P2;Temp;Humidity;BMP_temperature;BMP_pressure;BME280_temperature;BME280_humidity;BME280_pressure;Samples;Min_cycle;Max_cycle;Signal;HPM_P1;HPM_P2
2024/01/12 00:00:19;;;;;;;34.03;23.67;;;3.60;78.60;;;;;;5072479;28;20644;-82
2024/01/12 00:02:44;;;;;;;35.27;24.10;;;3.60;78.80;;;;;;5071637;28;20172;-82
2024/01/12 00:05:10;;;;;;;34.37;23.97;;;3.60;79.50;;;;;;5071495;28;20555;-83
2024/01/12 00:07:36;;;;;;;33.73;23.57;;;3.60;80.90;;;;;;5072122;28;20184;-83
2024/01/12 00:10:02;;;;;;;33.00;23.73;;;3.60;83.20;;;;;;5073574;28;20168;-82
2024/01/12 00:12:28;;;;;;;39.03;25.23;;;3.80;82.90;;;;;;5071333;28;20195;-84
2024/01/12 00:14:53;;;;;;;34.93;23.97;;;3.80;82.10;;;;;;5071943;28;20168;-83
2024/01/12 00:17:19;;;;;;;33.40;24.37;;;3.70;80.70;;;;;;5071836;28;20671;-83
2024/01/12 00:19:48;;;;;;;34.10;23.73;;;3.60;81.10;;;;;;5071850;28;20540;-82
2024/01/12 00:22:13;;;;;;;34.90;24.43;;;3.70;83.80;;;;;;5071826;28;20218;-83
2024/01/12 00:24:39;;;;;;;34.00;24.93;;;3.70;82.60;;;;;;5072127;28;20168;-82
2024/01/12 00:27:05;;;;;;;40.37;25.03;;;3.70;79.90;;;;;;5069698;28;20172;-84
2024/01/12 00:29:31;;;;;;;33.03;24.70;;;3.60;79.70;;;;;;5070355;28;20176;-81
2024/01/12 00:31:56;;;;;;;37.23;24.77;;;3.60;84.30;;;;;;5070843;28;20531;-82
2024/01/12 00:34:23;;;;;;;36.80;25.70;;;3.60;83.40;;;;;;5068980;28;20533;-83
2024/01/12 00:36:49;;;;;;;33.37;24.23;;;3.80;81.60;;;;;;5071535;28;20172;-80
2024/01/12 00:39:17;;;;;;;35.07;25.10;;;3.70;75.80;;;;;;5071173;28;20184;-80
2024/01/12 00:41:43;;;;;;;34.87;24.23;;;3.60;78.40;;;;;;5071674;28;20703;-81
2024/01/12 00:44:09;;;;;;;34.07;24.57;;;3.50;82.20;;;;;;5071106;28;20317;-83
2024/01/12 00:46:34;;;;;;;33.70;24.53;;;3.60;85.50;;;;;;5070860;28;20233;-81
2024/01/12 00:49:00;;;;;;;37.80;26.37;;;3.40;88.20;;;;;;5071765;28;20182;-82
2024/01/12 00:51:26;;;;;;;35.77;26.33;;;3.60;90.10;;;;;;5070225;28;20169;-81
2024/01/12 00:53:52;;;;;;;38.57;25.87;;;3.60;91.30;;;;;;5071198;28;20678;-83
2024/01/12 00:56:17;;;;;;;36.77;26.57;;;3.50;88.60;;;;;;5071750;28;20190;-83
2024/01/12 00:58:43;;;;;;;35.27;26.63;;;3.60;90.90;;;;;;5074589;28;20571;-84
2024/01/12 01:01:09;;;;;;;35.40;26.23;;;3.60;87.40;;;;;;5077512;28;20265;-80
2024/01/12 01:03:38;;;;;;;35.37;27.40;;;3.60;88.60;;;;;;5075442;28;20198;-82
2024/01/12 01:06:05;;;;;;;35.20;25.47;;;3.70;88.30;;;;;;5070906;28;20168;-84
2024/01/12 01:08:31;;;;;;;34.80;26.00;;;3.70;87.90;;;;;;5070751;28;20195;-82
2024/01/12 01:10:56;;;;;;;35.13;26.47;;;3.60;87.60;;;;;;5071084;28;20183;-82
2024/01/12 01:13:22;;;;;;;35.03;25.23;;;3.60;90.30;;;;;;5070311;28;20172;-81
2024/01/12 01:15:48;;;;;;;32.40;25.57;;;3.70;90.00;;;;;;5071141;28;20555;-82
2024/01/12 01:18:16;;;;;;;37.20;26.73;;;3.70;88.70;;;;;;5070646;28;20306;-83
2024/01/12 01:20:42;;;;;;;33.33;25.60;;;3.80;90.00;;;;;;5070019;28;20179;-82
2024/01/12 01:23:07;;;;;;;34.50;26.33;;;3.90;86.30;;;;;;5070690;28;20176;-82
2024/01/12 01:25:33;;;;;;;33.80;25.67;;;4.00;85.00;;;;;;5070330;28;20539;-81
2024/01/12 01:28:00;;;;;;;36.20;26.57;;;3.90;80.30;;;;;;5070466;28;20267;-83
2024/01/12 01:30:26;;;;;;;35.90;25.63;;;4.00;80.10;;;;;;5070964;28;20172;-82
2024/01/12 01:32:51;;;;;;;35.93;26.20;;;4.10;78.90;;;;;;5070775;28;20628;-82
2024/01/12 01:35:17;;;;;;;32.07;25.13;;;4.10;77.10;;;;;;5070919;28;20542;-82
2024/01/12 01:37:43;;;;;;;36.97;26.30;;;4.10;74.90;;;;;;5073260;28;20216;-83
2024/01/12 01:40:09;;;;;;;34.40;25.93;;;4.10;73.00;;;;;;5076919;28;20180;-81
2024/01/12 01:42:35;;;;;;;35.47;25.40;;;4.20;71.20;;;;;;5075797;28;20188;-82
2024/01/12 01:45:02;;;;;;;35.43;25.70;;;4.10;70.40;;;;;;5074636;28;20271;-82
2024/01/12 01:47:28;;;;;;;37.00;26.30;;;4.20;68.80;;;;;;5075068;28;20233;-83
2024/01/12 01:49:55;;;;;;;37.13;26.97;;;4.30;63.60;;;;;;5075045;28;20179;-83
2024/01/12 01:52:22;;;;;;;36.13;25.77;;;4.30;58.60;;;;;;5075439;28;20199;-82
2024/01/12 01:54:48;;;;;;;34.33;26.23;;;4.30;58.10;;;;;;5088786;28;20533;-82
2024/01/12 01:57:14;;;;;;;35.77;26.03;;;4.30;55.00;;;;;;5082664;28;20628;-83
2024/01/12 01:59:41;;;;;;;36.93;26.77;;;4.30;53.90;;;;;;5073392;28;20168;-82
2024/01/12 02:02:08;;;;;;;34.70;26.30;;;4.30;55.10;;;;;;5075643;28;20608;-83
2024/01/12 02:04:34;;;;;;;37.13;26.37;;;4.40;54.10;;;;;;5073610;28;20600;-82
2024/01/12 02:07:01;;;;;;;35.67;26.13;;;4.30;54.00;;;;;;5073796;28;20182;-80
2024/01/12 02:09:31;;;;;;;38.17;26.27;;;4.40;54.00;;;;;;5074069;28;20176;-80
2024/01/12 02:11:57;;;;;;;36.40;26.17;;;4.40;53.10;;;;;;5078491;28;20164;-81
2024/01/12 02:14:23;;;;;;;37.57;25.57;;;4.30;52.10;;;;;;5074817;28;20169;-81
2024/01/12 02:16:49;;;;;;;35.60;26.23;;;4.20;51.10;;;;;;5074127;28;20172;-81
2024/01/12 02:19:14;;;;;;;39.83;27.93;;;4.30;55.90;;;;;;5074870;28;20172;-83
2024/01/12 02:21:40;;;;;;;40.97;26.90;;;4.40;54.20;;;;;;5074028;28;20179;-82
2024/01/12 02:24:06;;;;;;;33.77;26.43;;;4.50;51.50;;;;;;5076183;28;20177;-81
2024/01/12 02:26:31;;;;;;;36.40;26.93;;;4.50;51.60;;;;;;5075790;28;20255;-81
2024/01/12 02:28:58;;;;;;;37.17;26.97;;;4.60;49.30;;;;;;5073805;28;20195;-81
2024/01/12 02:31:26;;;;;;;38.33;27.27;;;4.60;47.60;;;;;;5075330;28;20225;-80
2024/01/12 02:33:51;;;;;;;39.23;27.13;;;4.60;48.50;;;;;;5074513;28;20179;-83
2024/01/12 02:36:17;;;;;;;35.00;26.43;;;4.70;48.00;;;;;;5074549;28;20165;-82
2024/01/12 02:38:49;;;;;;;39.93;26.03;;;4.60;46.90;;;;;;5075793;28;20276;-81
2024/01/12 02:41:14;;;;;;;38.60;25.83;;;4.60;50.90;;;;;;5085555;28;20262;-81
2024/01/12 02:43:40;;;;;;;31.60;22.23;;;4.40;51.80;;;;;;5077707;28;20254;-81
2024/01/12 02:46:06;;;;;;;32.67;23.13;;;4.20;58.20;;;;;;5072840;28;20595;-83
2024/01/12 02:48:32;;;;;;;31.47;19.97;;;4.20;66.80;;;;;;5072918;28;20173;-82
2024/01/12 02:50:58;;;;;;;31.77;20.57;;;4.00;75.30;;;;;;5073018;28;20680;-81
2024/01/12 02:53:23;;;;;;;31.27;20.80;;;4.00;81.50;;;;;;5075078;28;20168;-82
2024/01/12 02:55:49;;;;;;;31.90;19.40;;;3.90;87.40;;;;;;5074018;28;20230;-80
2024/01/12 02:58:14;;;;;;;31.80;20.33;;;3.80;90.70;;;;;;5072283;28;20265;-82
2024/01/12 03:00:41;;;;;;;30.10;19.00;;;3.70;93.30;;;;;;5074442;28;20169;-82
2024/01/12 03:03:06;;;;;;;33.63;21.27;;;3.70;95.90;;;;;;5073902;28;20885;-81
2024/01/12 03:05:32;;;;;;;32.67;21.10;;;3.70;97.20;;;;;;5073154;28;20172;-83
2024/01/12 03:07:58;;;;;;;35.13;21.20;;;3.70;97.60;;;;;;5056202;28;20717;-82
2024/01/12 03:10:24;;;;;;;34.40;22.17;;;3.80;98.00;;;;;;5072793;28;20179;-83
2024/01/12 03:12:49;;;;;;;34.87;21.40;;;3.70;96.60;;;;;;5072785;28;20176;-84
2024/01/12 03:15:15;;;;;;;31.47;21.23;;;3.70;97.40;;;;;;5072970;28;20184;-81
2024/01/12 03:17:41;;;;;;;31.97;22.63;;;3.70;98.40;;;;;;5072703;28;20196;-82
2024/01/12 03:20:08;;;;;;;39.77;24.43;;;3.60;98.30;;;;;;5073017;28;20247;-82
2024/01/12 03:22:34;;;;;;;37.00;23.20;;;3.70;99.10;;;;;;5072802;28;20177;-83
2024/01/12 03:25:00;;;;;;;34.70;22.37;;;3.80;99.60;;;;;;5071408;28;20528;-82
2024/01/12 03:27:27;;;;;;;36.37;21.93;;;3.70;98.10;;;;;;5072725;28;20226;-80
2024/01/12 03:29:52;;;;;;;33.27;23.20;;;3.80;97.30;;;;;;5073025;28;20168;-82
2024/01/12 03:32:19;;;;;;;35.50;21.33;;;3.90;96.20;;;;;;5072316;28;20517;-81
2024/01/12 03:34:44;;;;;;;35.63;21.20;;;3.90;93.10;;;;;;5071783;28;20524;-80
2024/01/12 03:37:10;;;;;;;30.37;21.83;;;3.80;94.20;;;;;;5072829;28;20263;-81
2024/01/12 03:39:36;;;;;;;34.97;22.20;;;3.90;94.60;;;;;;5072876;28;20251;-80
2024/01/12 03:42:01;;;;;;;35.10;21.90;;;3.90;94.70;;;;;;5073342;28;20176;-84
2024/01/12 03:44:27;;;;;;;33.80;22.00;;;4.00;92.70;;;;;;5072237;28;20558;-83
2024/01/12 03:46:52;;;;;;;33.50;21.40;;;3.90;92.50;;;;;;5072479;28;20184;-81
2024/01/12 03:49:19;;;;;;;30.60;20.33;;;4.00;92.70;;;;;;5073014;28;20198;-82
2024/01/12 03:51:47;;;;;;;35.87;21.87;;;4.10;91.80;;;;;;5072793;28;20184;-81
2024/01/12 03:54:13;;;;;;;28.20;19.70;;;4.10;86.80;;;;;;5071941;28;20175;-81
2024/01/12 03:56:38;;;;;;;30.27;19.33;;;4.10;82.10;;;;;;5071482;28;20226;-80
2024/01/12 03:59:04;;;;;;;35.47;20.93;;;4.20;75.30;;;;;;5073441;28;20353;-81
2024/01/12 04:01:29;;;;;;;30.87;19.87;;;4.10;73.20;;;;;;5070539;28;20511;-82
2024/01/12 04:03:55;;;;;;;30.60;20.43;;;4.20;72.20;;;;;;5071897;28;20222;-81
2024/01/12 04:06:21;;;;;;;31.37;19.70;;;4.00;67.50;;;;;;5072196;28;20172;-83
2024/01/12 04:08:47;;;;;;;30.17;19.17;;;4.00;69.60;;;;;;5072613;28;20179;-82
2024/01/12 04:11:26;;;;;;;32.03;21.07;;;4.00;66.70;;;;;;5071477;28;20650;-81
2024/01/12 04:13:51;;;;;;;35.07;20.20;;;4.00;68.80;;;;;;5072946;28;20187;-82
2024/01/12 04:16:18;;;;;;;36.33;19.97;;;4.00;66.60;;;;;;5071672;28;20172;-81
2024/01/12 04:18:44;;;;;;;33.63;19.60;;;4.00;69.70;;;;;;5076370;28;20230;-84
2024/01/12 04:21:09;;;;;;;34.03;20.60;;;4.00;67.80;;;;;;5075142;28;20632;-82
2024/01/12 04:23:35;;;;;;;33.47;21.33;;;3.90;66.00;;;;;;5073071;28;20309;-81
2024/01/12 04:26:00;;;;;;;33.43;21.17;;;3.90;65.10;;;;;;5071893;28;20711;-81
2024/01/12 04:28:26;;;;;;;30.77;20.10;;;3.80;62.40;;;;;;5070831;28;20184;-81
2024/01/12 04:30:52;;;;;;;38.50;21.73;;;3.80;63.80;;;;;;5071262;28;20651;-83
2024/01/12 04:33:17;;;;;;;34.50;21.90;;;4.00;66.10;;;;;;5072957;28;20180;-80
2024/01/12 04:35:43;;;;;;;34.30;21.63;;;3.90;66.90;;;;;;5072840;28;20173;-82
2024/01/12 04:38:09;;;;;;;34.80;21.07;;;3.90;65.30;;;;;;5070332;28;20232;-81
2024/01/12 04:40:35;;;;;;;32.83;21.30;;;3.90;63.40;;;;;;5072129;28;20179;-83
2024/01/12 04:43:01;;;;;;;32.40;20.43;;;3.90;62.90;;;;;;5071826;28;20202;-83
2024/01/12 04:45:27;;;;;;;36.47;21.13;;;4.00;57.30;;;;;;5078087;28;20202;-83
2024/01/12 04:47:53;;;;;;;36.03;21.87;;;4.00;54.60;;;;;;5072974;28;20176;-81
2024/01/12 04:50:19;;;;;;;35.23;19.07;;;4.00;52.70;;;;;;5071765;28;20279;-82
2024/01/12 04:52:45;;;;;;;31.23;19.87;;;4.00;48.90;;;;;;5071823;28;20172;-81
2024/01/12 04:55:11;;;;;;;28.73;18.70;;;4.00;47.10;;;;;;5071500;28;20178;-82
2024/01/12 04:57:37;;;;;;;34.33;19.00;;;4.00;50.10;;;;;;5071311;28;20211;-80
2024/01/12 05:00:05;;;;;;;32.27;18.33;;;4.10;48.10;;;;;;5071612;28;20172;-83
2024/01/12 05:02:31;;;;;;;36.13;19.77;;;4.00;48.60;;;;;;5071492;28;20172;-83
2024/01/12 05:04:57;;;;;;;31.27;18.27;;;4.10;47.60;;;;;;5070897;28;20181;-84
2024/01/12 05:07:22;;;;;;;31.03;17.50;;;4.10;44.90;;;;;;5070419;28;20849;-84
2024/01/12 05:09:48;;;;;;;32.00;16.97;;;4.00;42.00;;;;;;5071452;28;20259;-83
2024/01/12 05:12:14;;;;;;;30.20;17.30;;;4.00;43.10;;;;;;5073976;28;20184;-83
2024/01/12 05:14:40;;;;;;;24.30;15.33;;;3.90;45.60;;;;;;5077810;28;20172;-81
2024/01/12 05:17:05;;;;;;;25.37;15.97;;;4.00;48.00;;;;;;5077632;28;21344;-82
2024/01/12 05:19:31;;;;;;;28.77;16.53;;;4.00;47.80;;;;;;5078465;28;20214;-81
2024/01/12 05:21:56;;;;;;;27.33;16.43;;;4.00;43.20;;;;;;5079131;28;20172;-82
2024/01/12 05:24:22;;;;;;;27.13;15.70;;;4.00;43.70;;;;;;5085042;28;20199;-85
2024/01/12 05:26:49;;;;;;;33.10;15.70;;;4.00;40.90;;;;;;5078001;28;20172;-83
2024/01/12 05:29:15;;;;;;;26.03;13.20;;;4.00;41.30;;;;;;5077404;28;20180;-82
2024/01/12 05:31:44;;;;;;;23.97;13.37;;;3.90;39.70;;;;;;5077163;28;20651;-83
2024/01/12 05:34:10;;;;;;;27.87;14.40;;;3.90;40.40;;;;;;5077551;28;20188;-83
2024/01/12 05:36:36;;;;;;;26.67;13.40;;;3.90;42.70;;;;;;5077478;28;20259;-82
2024/01/12 05:39:02;;;;;;;33.40;14.77;;;3.90;44.20;;;;;;5077523;28;20675;-84
2024/01/12 05:41:28;;;;;;;20.40;11.60;;;3.90;44.60;;;;;;5076672;28;20176;-81
2024/01/12 05:43:53;;;;;;;25.20;12.40;;;3.80;41.10;;;;;;5079244;28;20184;-81
2024/01/12 05:46:19;;;;;;;24.03;12.23;;;3.70;46.20;;;;;;5077568;28;20202;-83
2024/01/12 05:48:45;;;;;;;25.47;13.73;;;3.80;48.80;;;;;;5078705;28;20624;-82
2024/01/12 05:51:17;;;;;;;22.23;12.80;;;3.80;50.10;;;;;;5077430;28;20168;-82
2024/01/12 05:53:44;;;;;;;24.30;12.23;;;3.80;50.30;;;;;;5078848;28;20228;-82
2024/01/12 05:56:09;;;;;;;23.80;12.47;;;3.80;48.60;;;;;;5077822;28;20711;-80
2024/01/12 05:58:35;;;;;;;22.60;12.20;;;3.80;47.40;;;;;;5087435;28;20231;-83
2024/01/12 06:01:01;;;;;;;20.37;10.70;;;3.80;47.70;;;;;;5080873;28;20180;-82
2024/01/12 06:03:28;;;;;;;23.47;12.37;;;3.80;48.60;;;;;;5087760;28;20332;-81
2024/01/12 06:05:57;;;;;;;20.40;10.47;;;3.80;48.70;;;;;;5096780;28;20176;-81
2024/01/12 06:08:23;;;;;;;23.37;11.10;;;3.70;46.00;;;;;;5096737;28;20171;-81
2024/01/12 06:10:50;;;;;;;21.43;11.47;;;3.70;44.70;;;;;;5096476;28;20167;-80
2024/01/12 06:13:16;;;;;;;24.93;11.43;;;3.70;47.70;;;;;;5097248;28;20267;-81
2024/01/12 06:15:42;;;;;;;21.03;11.93;;;3.80;48.20;;;;;;5096755;28;20171;-84
2024/01/12 06:18:08;;;;;;;21.60;10.77;;;3.70;45.60;;;;;;5098681;28;20290;-82
2024/01/12 06:20:35;;;;;;;24.20;11.87;;;3.60;45.30;;;;;;5095976;28;20186;-83
2024/01/12 06:23:01;;;;;;;21.47;11.07;;;3.60;48.20;;;;;;5097066;28;20167;-81
2024/01/12 06:25:29;;;;;;;27.00;12.73;;;3.90;51.30;;;;;;5093965;28;20251;-82
2024/01/12 06:27:54;;;;;;;21.30;11.53;;;3.70;49.40;;;;;;5095068;28;20175;-82
2024/01/12 06:30:20;;;;;;;22.57;12.50;;;3.80;48.50;;;;;;5093350;28;20599;-84
2024/01/12 06:32:45;;;;;;;25.17;12.13;;;3.80;41.70;;;;;;5094438;28;20395;-82
2024/01/12 06:35:11;;;;;;;27.00;11.97;;;3.70;37.60;;;;;;5092474;28;20186;-83
2024/01/12 06:37:37;;;;;;;24.10;12.47;;;3.70;41.40;;;;;;5094681;28;20674;-84
2024/01/12 06:40:05;;;;;;;22.40;11.20;;;3.70;42.70;;;;;;5095082;28;20172;-81
2024/01/12 06:42:31;;;;;;;23.80;12.07;;;3.60;45.00;;;;;;5093962;28;20661;-81
2024/01/12 06:44:57;;;;;;;21.57;12.03;;;3.60;43.00;;;;;;5095040;28;20171;-82
2024/01/12 06:47:23;;;;;;;20.20;12.13;;;3.50;46.10;;;;;;5093602;28;20167;-85
2024/01/12 06:49:49;;;;;;;24.47;13.10;;;3.50;50.00;;;;;;5094215;28;20508;-82
2024/01/12 06:52:14;;;;;;;26.67;13.30;;;3.50;52.80;;;;;;5096639;28;20159;-83
2024/01/12 06:54:43;;;;;;;23.20;12.83;;;3.40;53.40;;;;;;5095938;28;20168;-81
2024/01/12 06:57:10;;;;;;;24.83;14.47;;;3.40;55.70;;;;;;5093565;28;20183;-84
2024/01/12 06:59:35;;;;;;;42.60;15.53;;;3.40;59.20;;;;;;5095356;28;20203;-86
2024/01/12 07:02:01;;;;;;;32.47;15.70;;;3.40;57.30;;;;;;5080592;28;20251;-82
2024/01/12 07:04:27;;;;;;;28.77;14.63;;;3.50;59.40;;;;;;5104985;28;20183;-86
2024/01/12 07:06:52;;;;;;;29.57;15.03;;;3.50;60.10;;;;;;5082996;28;20644;-82
2024/01/12 07:09:21;;;;;;;32.97;15.30;;;3.50;60.70;;;;;;5083411;28;20172;-83
2024/01/12 07:11:47;;;;;;;24.07;13.37;;;3.60;59.90;;;;;;5075682;28;20188;-84
2024/01/12 07:14:16;;;;;;;28.60;16.90;;;3.60;56.90;;;;;;5076315;28;20218;-83
2024/01/12 07:16:42;;;;;;;30.60;15.30;;;3.60;57.50;;;;;;5072903;28;20176;-84
2024/01/12 07:19:08;;;;;;;21.20;13.10;;;3.60;55.40;;;;;;5072841;28;20223;-83
2024/01/12 07:21:34;;;;;;;28.70;16.33;;;3.50;52.30;;;;;;5071599;28;20168;-85
2024/01/12 07:24:01;;;;;;;33.40;15.33;;;3.40;53.90;;;;;;5072997;28;20172;-83
2024/01/12 07:26:26;;;;;;;29.17;16.90;;;3.50;56.90;;;;;;5073628;28;20891;-85
2024/01/12 07:28:52;;;;;;;32.07;15.67;;;3.50;59.00;;;;;;5073315;28;20187;-83
2024/01/12 07:31:18;;;;;;;23.17;14.43;;;3.50;56.80;;;;;;5073358;28;20172;-83
2024/01/12 07:33:44;;;;;;;28.33;14.70;;;3.60;53.90;;;;;;5071767;28;20179;-84
2024/01/12 07:36:10;;;;;;;24.67;14.97;;;3.60;51.60;;;;;;5073894;28;20533;-83
2024/01/12 07:38:36;;;;;;;32.30;15.87;;;3.70;50.40;;;;;;5077473;28;20208;-83
2024/01/12 07:41:02;;;;;;;27.63;16.07;;;3.50;48.30;;;;;;5086765;28;20176;-82
2024/01/12 07:43:27;;;;;;;28.43;15.10;;;3.50;49.30;;;;;;5079984;28;20624;-84
2024/01/12 07:45:53;;;;;;;27.03;14.97;;;3.50;48.30;;;;;;5073747;28;20878;-84
2024/01/12 07:48:20;;;;;;;25.37;13.87;;;3.40;48.00;;;;;;5072123;28;20271;-84
2024/01/12 07:50:47;;;;;;;23.47;14.93;;;3.50;48.20;;;;;;5072742;28;20173;-84
2024/01/12 07:53:12;;;;;;;22.23;14.00;;;3.50;50.20;;;;;;5074754;28;20183;-83
2024/01/12 07:55:38;;;;;;;24.53;15.07;;;3.40;49.00;;;;;;5072568;28;20180;-83
2024/01/12 07:58:04;;;;;;;30.40;15.27;;;3.40;48.80;;;;;;5072331;28;20250;-83
2024/01/12 08:00:30;;;;;;;26.87;15.33;;;3.50;52.20;;;;;;5071760;28;20229;-84
2024/01/12 08:02:55;;;;;;;25.50;15.53;;;3.60;52.10;;;;;;5071368;28;20184;-83
2024/01/12 08:05:22;;;;;;;28.00;17.27;;;3.50;51.30;;;;;;5071893;28;20627;-84
2024/01/12 08:07:48;;;;;;;23.33;15.10;;;3.60;49.20;;;;;;5071092;28;20598;-83
2024/01/12 08:10:15;;;;;;;24.63;15.57;;;3.50;47.30;;;;;;5072635;28;20578;-83
2024/01/12 08:12:41;;;;;;;28.47;16.17;;;3.60;48.00;;;;;;5071160;28;20182;-84
2024/01/12 08:15:09;;;;;;;30.83;15.80;;;3.70;48.70;;;;;;5071990;28;20734;-84
2024/01/12 08:17:39;;;;;;;27.40;15.30;;;3.50;51.10;;;;;;5072068;28;20200;-83
2024/01/12 08:20:06;;;;;;;23.03;14.93;;;3.60;51.10;;;;;;5075162;28;20250;-83
2024/01/12 08:22:32;;;;;;;26.10;15.50;;;3.60;49.40;;;;;;5073250;28;20266;-85
2024/01/12 08:24:58;;;;;;;23.63;14.27;;;3.50;53.40;;;;;;5073569;28;20211;-84
2024/01/12 08:27:24;;;;;;;22.77;14.37;;;3.50;51.20;;;;;;5071453;28;20187;-83
2024/01/12 08:29:50;;;;;;;20.33;14.20;;;3.60;47.90;;;;;;5072182;28;20188;-83
2024/01/12 08:32:16;;;;;;;22.63;13.37;;;3.50;52.80;;;;;;5072082;28;20643;-83
2024/01/12 08:34:41;;;;;;;25.17;14.13;;;3.40;49.00;;;;;;5070872;28;20179;-84
2024/01/12 08:37:07;;;;;;;23.23;14.87;;;3.40;46.60;;;;;;5072170;28;20695;-83
2024/01/12 08:39:36;;;;;;;23.23;13.40;;;3.40;46.50;;;;;;5071975;28;20179;-83
2024/01/12 08:42:02;;;;;;;22.30;12.03;;;3.40;46.30;;;;;;5071744;28;20198;-84
2024/01/12 08:44:28;;;;;;;19.83;11.10;;;3.50;44.30;;;;;;5072575;28;20187;-84
2024/01/12 08:46:53;;;;;;;28.27;12.73;;;3.50;43.40;;;;;;5071147;28;20172;-84
2024/01/12 08:49:20;;;;;;;27.07;13.13;;;3.60;38.80;;;;;;5071997;28;20270;-83
2024/01/12 08:51:47;;;;;;;19.63;11.20;;;3.70;35.10;;;;;;5071961;28;20182;-85
2024/01/12 08:54:14;;;;;;;22.67;11.93;;;3.70;32.40;;;;;;5073309;28;20173;-83
2024/01/12 08:56:39;;;;;;;23.43;12.73;;;3.60;34.40;;;;;;5075034;28;20242;-85
2024/01/12 08:59:05;;;;;;;25.37;13.00;;;3.70;36.40;;;;;;5079873;28;20211;-84
2024/01/12 09:01:30;;;;;;;24.20;13.00;;;3.90;34.80;;;;;;5073145;28;20168;-85
2024/01/12 09:03:56;;;;;;;25.73;11.80;;;3.80;33.50;;;;;;5072486;28;20578;-85
2024/01/12 09:06:23;;;;;;;20.97;11.57;;;3.90;33.90;;;;;;5071542;28;20172;-84
2024/01/12 09:08:50;;;;;;;21.53;11.53;;;3.90;32.30;;;;;;5071201;28;20179;-84
2024/01/12 09:11:15;;;;;;;20.03;10.97;;;3.90;27.20;;;;;;5090135;28;20172;-84
2024/01/12 09:13:41;;;;;;;17.83;11.77;;;4.00;31.00;;;;;;5091643;28;20186;-84
2024/01/12 09:16:10;;;;;;;24.73;11.10;;;3.90;31.20;;;;;;5097162;28;20178;-84
2024/01/12 09:18:37;;;;;;;31.40;12.77;;;3.80;32.40;;;;;;5101267;28;20271;-82
2024/01/12 09:21:03;;;;;;;25.77;11.70;;;3.80;35.30;;;;;;5092840;28;20172;-84
2024/01/12 09:23:29;;;;;;;21.50;11.47;;;4.00;37.90;;;;;;5093420;28;20217;-84
2024/01/12 09:25:54;;;;;;;26.87;13.00;;;3.90;40.00;;;;;;5092506;28;20555;-84
2024/01/12 09:28:20;;;;;;;21.67;11.73;;;4.00;39.40;;;;;;5092021;28;20186;-84
2024/01/12 09:30:47;;;;;;;17.57;10.93;;;4.10;34.80;;;;;;5092500;28;20271;-84
2024/01/12 09:33:16;;;;;;;20.80;12.23;;;4.20;33.00;;;;;;5092936;28;20190;-85
2024/01/12 09:35:41;;;;;;;21.37;11.70;;;4.10;33.90;;;;;;5093302;28;20210;-84
2024/01/12 09:38:07;;;;;;;20.63;12.73;;;4.00;34.70;;;;;;5094045;28;20222;-85
2024/01/12 09:40:33;;;;;;;18.90;12.63;;;4.30;37.20;;;;;;5093061;28;20627;-85
2024/01/12 09:43:00;;;;;;;19.60;12.10;;;4.30;32.60;;;;;;5096010;28;20262;-84
2024/01/12 09:45:26;;;;;;;27.30;13.73;;;4.20;29.30;;;;;;5093041;28;20547;-84
2024/01/12 09:47:53;;;;;;;29.73;13.30;;;4.20;31.40;;;;;;5091673;28;20197;-86
2024/01/12 09:50:22;;;;;;;27.50;13.53;;;4.40;31.20;;;;;;5091221;28;20175;-82
2024/01/12 09:52:49;;;;;;;26.73;14.17;;;4.40;28.50;;;;;;5092662;28;20182;-83
2024/01/12 09:55:14;;;;;;;25.97;14.23;;;4.40;27.80;;;;;;5090703;28;20377;-85
2024/01/12 09:57:41;;;;;;;20.47;13.13;;;4.50;24.10;;;;;;5090198;28;20679;-85
2024/01/12 10:00:11;;;;;;;20.40;12.50;;;4.50;21.70;;;;;;5093849;28;20176;-85
2024/01/12 10:02:37;;;;;;;19.60;12.40;;;4.50;23.20;;;;;;5095256;28;20221;-85
2024/01/12 10:05:02;;;;;;;28.10;13.50;;;4.60;21.80;;;;;;5094398;28;20262;-82
2024/01/12 10:07:28;;;;;;;20.90;12.93;;;4.50;22.80;;;;;;5094647;28;20620;-84
2024/01/12 10:09:54;;;;;;;23.90;13.93;;;4.50;21.60;;;;;;5094481;28;20258;-85
2024/01/12 10:12:19;;;;;;;31.30;13.87;;;4.60;21.30;;;;;;5095937;28;20171;-84
2024/01/12 10:14:45;;;;;;;25.23;14.43;;;4.30;23.70;;;;;;5095008;28;20191;-83
2024/01/12 10:17:13;;;;;;;26.73;14.50;;;4.40;28.90;;;;;;5096308;28;20172;-84
2024/01/12 10:19:40;;;;;;;28.80;14.80;;;4.40;26.70;;;;;;5097729;28;20171;-84
2024/01/12 10:22:12;;;;;;;29.80;15.00;;;4.40;26.90;;;;;;5097716;28;20257;-83
2024/01/12 10:24:38;;;;;;;29.20;16.30;;;4.30;28.40;;;;;;5094414;28;20168;-84
2024/01/12 10:27:05;;;;;;;30.33;14.77;;;4.40;29.40;;;;;;5094853;28;20274;-85
2024/01/12 10:29:31;;;;;;;25.63;14.60;;;4.30;28.40;;;;;;5095392;28;20171;-84
2024/01/12 10:31:56;;;;;;;26.33;15.63;;;4.40;29.20;;;;;;5093505;28;20194;-85
2024/01/12 10:34:27;;;;;;;26.20;15.27;;;4.30;28.50;;;;;;5086809;28;20265;-84
2024/01/12 10:36:56;;;;;;;25.20;15.47;;;4.30;29.60;;;;;;5072823;28;20318;-84
2024/01/12 10:39:23;;;;;;;28.53;15.03;;;4.40;30.10;;;;;;5072550;28;20281;-85
2024/01/12 10:41:50;;;;;;;27.23;13.77;;;4.40;30.00;;;;;;5074335;28;20173;-86
2024/01/12 10:44:20;;;;;;;23.73;13.87;;;4.40;31.80;;;;;;5074641;28;20633;-83
2024/01/12 10:46:48;;;;;;;25.47;15.87;;;4.60;30.70;;;;;;5075456;28;20176;-87
2024/01/12 10:49:22;;;;;;;26.63;14.73;;;4.50;28.20;;;;;;5074607;28;20589;-85
2024/01/12 10:52:00;;;;;;;23.37;13.93;;;4.60;23.30;;;;;;5074627;28;20184;-84
2024/01/12 10:54:32;;;;;;;25.07;14.50;;;4.60;22.20;;;;;;5088610;28;20179;-86
2024/01/12 10:56:58;;;;;;;28.67;15.47;;;4.80;18.20;;;;;;5081798;28;20188;-85
2024/01/12 10:59:25;;;;;;;30.70;14.87;;;4.70;17.20;;;;;;5074103;28;20230;-85
2024/01/12 11:01:54;;;;;;;25.87;14.23;;;4.60;18.30;;;;;;5075522;28;20261;-85
2024/01/12 11:04:21;;;;;;;26.93;14.70;;;4.60;18.80;;;;;;5074963;28;20263;-85
2024/01/12 11:06:48;;;;;;;25.13;14.43;;;4.80;22.70;;;;;;5072853;28;20198;-85
2024/01/12 11:09:17;;;;;;;25.07;14.40;;;4.90;20.50;;;;;;5072450;28;20288;-84
2024/01/12 11:11:53;;;;;;;26.30;14.50;;;4.90;16.30;;;;;;5072477;28;20172;-86
2024/01/12 11:14:20;;;;;;;24.73;12.87;;;4.90;13.20;;;;;;5073560;28;20172;-83
2024/01/12 11:16:46;;;;;;;25.63;13.90;;;5.00;13.60;;;;;;5072298;28;20313;-85
2024/01/12 11:19:13;;;;;;;26.57;14.40;;;5.00;10.10;;;;;;5073427;28;20296;-85
2024/01/12 11:21:40;;;;;;;25.13;13.73;;;5.30;10.40;;;;;;5073154;28;20180;-85
2024/01/12 11:24:07;;;;;;;25.97;14.03;;;5.10;4.70;;;;;;5073219;28;20214;-86
2024/01/12 11:26:33;;;;;;;23.17;11.30;;;5.20;3.50;;;;;;5073252;28;20628;-85
2024/01/12 11:29:01;;;;;;;26.43;12.27;;;4.90;3.00;;;;;;5072665;28;20263;-85
2024/01/12 11:31:27;;;;;;;24.30;12.13;;;4.80;8.90;;;;;;5073424;28;20168;-85
2024/01/12 11:34:02;;;;;;;22.23;11.60;;;4.90;12.40;;;;;;5073155;28;20662;-86
2024/01/12 11:36:29;;;;;;;24.90;12.03;;;5.10;13.70;;;;;;5073020;28;20180;-85
2024/01/12 11:39:01;;;;;;;22.07;11.70;;;4.90;12.30;;;;;;5073585;28;20207;-86
2024/01/12 11:41:29;;;;;;;23.87;12.70;;;4.90;10.60;;;;;;5073364;28;20222;-83
2024/01/12 11:43:55;;;;;;;24.70;12.50;;;4.90;13.00;;;;;;5073272;28;20261;-85
2024/01/12 11:46:23;;;;;;;22.33;11.27;;;5.00;11.80;;;;;;5072966;28;20206;-86
2024/01/12 11:48:50;;;;;;;17.33;10.97;;;5.10;11.10;;;;;;5072547;28;20647;-86
2024/01/12 11:51:28;;;;;;;21.87;11.00;;;5.10;9.60;;;;;;5072279;28;20271;-86
2024/01/12 11:53:57;;;;;;;20.97;10.87;;;5.20;8.40;;;;;;5072153;28;20175;-85
2024/01/12 11:56:24;;;;;;;19.60;11.50;;;5.20;5.10;;;;;;5072646;28;20180;-85
2024/01/12 11:58:54;;;;;;;16.60;10.67;;;5.10;1.50;;;;;;5072049;28;20204;-85
2024/01/12 12:01:20;;;;;;;22.50;13.60;;;5.10;1.00;;;;;;5072684;28;20162;-85
2024/01/12 12:03:46;;;;;;;21.20;12.20;;;5.20;4.40;;;;;;5072388;28;20647;-87
2024/01/12 12:06:12;;;;;;;17.13;10.80;;;5.40;4.30;;;;;;5072536;28;20176;-86
2024/01/12 12:08:40;;;;;;;16.73;9.60;;;5.30;1.00;;;;;;5072853;28;20234;-84
2024/01/12 12:11:06;;;;;;;16.40;10.17;;;5.30;1.00;;;;;;5072210;28;20247;-86
2024/01/12 12:13:35;;;;;;;20.17;11.20;;;5.40;1.00;;;;;;5072226;28;20636;-84
2024/01/12 12:16:01;;;;;;;22.73;10.73;;;5.40;1.00;;;;;;5071231;28;20620;-85
2024/01/12 12:18:30;;;;;;;24.63;10.13;;;5.30;1.00;;;;;;5072559;28;20243;-85
2024/01/12 12:20:57;;;;;;;17.17;9.87;;;5.40;1.00;;;;;;5072192;28;20167;-85
2024/01/12 12:23:24;;;;;;;17.67;10.40;;;5.30;1.00;;;;;;5071820;28;20215;-86
2024/01/12 12:25:50;;;;;;;26.80;10.87;;;5.30;1.00;;;;;;5071620;28;20168;-85
2024/01/12 12:28:16;;;;;;;25.23;12.17;;;5.40;1.00;;;;;;5071556;28;20267;-85
2024/01/12 12:30:43;;;;;;;20.10;12.37;;;5.40;1.00;;;;;;5071723;28;20211;-83
2024/01/12 12:33:10;;;;;;;18.43;10.40;;;5.50;1.00;;;;;;5071566;28;20218;-85